Time;durP1;ratioP1;P1;durP2;ratioP2;P2;SDS_P1;SDS_P2;PMS_P1;PMS_P2;Temp;Humidity;BMP_temperature;BMP_pressure;BME280_temperature;BME280_humidity;BME280_pressure;Samples;Min_cycle;Max_cycle;Signal;HPM_P1;HPM_P2
2023/03/27 00:01:11;;;;;;;4.63;1.90;;;7.40;92.30;;;;;;5042686;28;20487;-83
2023/03/27 00:03:39;;;;;;;4.67;1.37;;;7.30;92.30;;;;;;5047014;28;20441;-82
2023/03/27 00:06:10;;;;;;;5.10;1.80;;;7.30;92.50;;;;;;5046962;28;20459;-82
2023/03/27 00:08:37;;;;;;;4.37;2.03;;;7.30;92.60;;;;;;5045151;28;20455;-82
2023/03/27 00:11:06;;;;;;;5.57;1.30;;;7.30;92.60;;;;;;5045630;28;20987;-82
2023/03/27 00:13:34;;;;;;;6.40;1.93;;;7.20;92.60;;;;;;5053129;28;20494;-84
2023/03/27 00:16:01;;;;;;;3.33;1.70;;;7.20;92.60;;;;;;5060711;28;20456;-83
2023/03/27 00:18:28;;;;;;;4.47;1.50;;;7.20;92.80;;;;;;5063603;28;20454;-84
2023/03/27 00:21:00;;;;;;;5.10;1.17;;;7.20;92.70;;;;;;5061303;28;20536;-83
2023/03/27 00:23:30;;;;;;;5.87;1.60;;;7.20;92.70;;;;;;5074931;28;20433;-82
2023/03/27 00:25:58;;;;;;;2.57;1.43;;;7.30;92.70;;;;;;5062925;28;20539;-82
2023/03/27 00:28:29;;;;;;;5.80;1.37;;;7.30;92.60;;;;;;5059548;28;20452;-84
2023/03/27 00:30:56;;;;;;;5.90;1.53;;;7.40;92.50;;;;;;5061743;28;20787;-84
2023/03/27 00:33:24;;;;;;;5.10;1.27;;;7.30;92.20;;;;;;5057489;28;20436;-83
2023/03/27 00:35:52;;;;;;;9.27;1.80;;;7.20;92.40;;;;;;5049710;28;20452;-82
2023/03/27 00:38:20;;;;;;;4.90;1.87;;;7.20;92.60;;;;;;5031594;28;20480;-83
2023/03/27 00:40:49;;;;;;;6.50;2.30;;;7.20;92.80;;;;;;5029150;28;20550;-83
2023/03/27 00:43:34;;;;;;;9.83;2.80;;;7.00;92.80;;;;;;5030228;28;20496;-84
2023/03/27 00:46:36;;;;;;;9.07;2.87;;;7.00;92.90;;;;;;5034438;28;20452;-83
2023/03/27 00:49:07;;;;;;;5.47;1.57;;;7.00;93.20;;;;;;5028158;28;20524;-84
2023/03/27 00:51:35;;;;;;;6.00;1.90;;;6.90;93.40;;;;;;5027552;28;20499;-84
2023/03/27 00:54:04;;;;;;;7.43;1.90;;;6.80;93.50;;;;;;5029258;28;20464;-83
2023/03/27 00:56:32;;;;;;;4.10;1.70;;;6.90;93.70;;;;;;5029780;28;22898;-83
2023/03/27 00:59:04;;;;;;;4.00;1.80;;;6.80;93.90;;;;;;4983641;28;20469;-81
2023/03/27 01:01:30;;;;;;;5.13;2.10;;;6.70;94.00;;;;;;5022699;28;20875;-84
2023/03/27 01:04:05;;;;;;;7.33;2.00;;;6.70;94.20;;;;;;5029088;28;20510;-82
2023/03/27 01:06:32;;;;;;;2.50;1.13;;;6.70;94.50;;;;;;5027568;28;20540;-83
2023/03/27 01:09:03;;;;;;;3.23;2.07;;;6.70;94.60;;;;;;5028701;28;21129;-83
2023/03/27 01:11:48;;;;;;;5.20;1.70;;;6.70;94.60;;;;;;5027188;28;20474;-83
2023/03/27 01:14:42;;;;;;;8.20;1.67;;;6.60;94.70;;;;;;5028068;28;20448;-82
2023/03/27 01:17:20;;;;;;;5.70;1.73;;;6.60;94.80;;;;;;5018204;28;20555;-82
2023/03/27 01:20:19;;;;;;;6.87;2.80;;;6.60;94.90;;;;;;5056312;28;20492;-83
2023/03/27 01:23:05;;;;;;;4.73;1.63;;;6.60;94.90;;;;;;5006856;28;20444;-84
2023/03/27 01:25:56;;;;;;;3.00;1.70;;;6.60;95.10;;;;;;5034998;28;20460;-83
2023/03/27 01:28:32;;;;;;;5.00;2.07;;;6.50;95.10;;;;;;5043591;28;20493;-83
2023/03/27 01:31:24;;;;;;;5.70;2.10;;;6.50;95.20;;;;;;5041625;28;20540;-83
2023/03/27 01:34:09;;;;;;;4.63;1.77;;;6.50;95.40;;;;;;5043465;28;20495;-83
2023/03/27 01:37:06;;;;;;;4.67;1.37;;;6.40;95.40;;;;;;5040502;28;21075;-81
2023/03/27 01:40:03;;;;;;;4.83;1.57;;;6.40;95.60;;;;;;5039810;28;20506;-82
2023/03/27 01:42:37;;;;;;;6.60;1.70;;;6.40;95.80;;;;;;5041399;28;20550;-82
2023/03/27 01:45:21;;;;;;;3.07;1.30;;;6.40;95.70;;;;;;5042996;28;21963;-84
2023/03/27 01:48:24;;;;;;;5.57;1.50;;;6.30;95.80;;;;;;5051107;28;20444;-84
2023/03/27 01:51:00;;;;;;;5.30;1.33;;;6.30;95.80;;;;;;5046555;28;20724;-83
2023/03/27 01:53:39;;;;;;;5.20;2.00;;;6.40;95.80;;;;;;5058972;28;20527;-83
2023/03/27 01:56:24;;;;;;;2.00;1.63;;;6.30;95.80;;;;;;5059251;28;20432;-84
2023/03/27 01:59:02;;;;;;;5.70;1.50;;;6.30;95.90;;;;;;5058093;28;20468;-83
2023/03/27 02:01:35;;;;;;;3.70;1.73;;;6.30;95.90;;;;;;5052319;28;20598;-84
2023/03/27 02:04:03;;;;;;;3.27;1.20;;;6.20;96.00;;;;;;5036530;28;20462;-82
2023/03/27 02:06:38;;;;;;;5.90;2.20;;;6.20;96.00;;;;;;5028627;28;21101;-82
2023/03/27 02:09:21;;;;;;;6.60;1.70;;;6.20;96.10;;;;;;5044369;28;20997;-83
2023/03/27 02:12:04;;;;;;;9.93;2.10;;;6.20;96.10;;;;;;5036044;28;20500;-83
2023/03/27 02:14:46;;;;;;;2.63;2.27;;;6.20;96.20;;;;;;5038380;28;20873;-82
2023/03/27 02:17:15;;;;;;;8.90;1.90;;;6.20;96.20;;;;;;5045608;28;20496;-80
2023/03/27 02:19:59;;;;;;;2.10;1.53;;;6.20;96.20;;;;;;5055845;28;20448;-81
2023/03/27 02:22:27;;;;;;;7.03;1.87;;;6.20;96.10;;;;;;5050406;28;20471;-83
2023/03/27 02:25:20;;;;;;;8.10;2.33;;;6.20;96.10;;;;;;5058164;28;20431;-84
2023/03/27 02:27:50;;;;;;;6.13;2.30;;;6.10;96.00;;;;;;5057168;28;21353;-82
2023/03/27 02:30:32;;;;;;;9.97;2.03;;;6.20;96.00;;;;;;5051775;28;20452;-82
2023/03/27 02:33:13;;;;;;;3.40;1.30;;;6.10;96.10;;;;;;5056159;28;20416;-82
2023/03/27 02:35:51;;;;;;;4.10;1.53;;;6.10;96.20;;;;;;5060012;28;20444;-83
2023/03/27 02:38:28;;;;;;;4.70;1.70;;;6.10;96.10;;;;;;5054360;28;20447;-82
2023/03/27 02:41:19;;;;;;;8.87;2.93;;;6.10;96.20;;;;;;5043920;28;20486;-82
2023/03/27 02:44:10;;;;;;;8.80;1.50;;;6.00;96.20;;;;;;5044262;28;20465;-81
2023/03/27 02:46:48;;;;;;;3.80;1.20;;;6.00;96.10;;;;;;5040760;28;21205;-83
2023/03/27 02:49:20;;;;;;;4.10;1.50;;;6.00;96.20;;;;;;5036505;28;20505;-84
2023/03/27 02:51:53;;;;;;;4.47;1.60;;;5.90;96.20;;;;;;5035598;28;20488;-84
2023/03/27 02:54:29;;;;;;;3.73;1.80;;;5.90;96.30;;;;;;5036281;28;21066;-82
2023/03/27 02:57:00;;;;;;;5.57;1.90;;;6.00;96.50;;;;;;5036739;28;20483;-82
2023/03/27 02:59:50;;;;;;;5.83;1.60;;;5.90;96.40;;;;;;5037778;28;20520;-81
2023/03/27 03:02:23;;;;;;;5.23;1.83;;;5.90;96.50;;;;;;5052861;28;20465;-85
2023/03/27 03:04:58;;;;;;;2.90;1.50;;;6.00;96.50;;;;;;5042439;28;20948;-82
2023/03/27 03:07:25;;;;;;;6.43;1.53;;;5.90;96.30;;;;;;5044035;28;20455;-83
2023/03/27 03:09:55;;;;;;;6.10;1.50;;;5.90;96.30;;;;;;5043377;28;20455;-82
2023/03/27 03:12:22;;;;;;;3.37;1.20;;;5.80;96.40;;;;;;5041506;28;20474;-82
2023/03/27 03:14:48;;;;;;;7.40;1.67;;;5.80;96.50;;;;;;5044908;28;20502;-83
2023/03/27 03:17:16;;;;;;;5.27;1.70;;;5.80;96.50;;;;;;5041871;28;20456;-84
2023/03/27 03:19:42;;;;;;;3.43;1.53;;;5.80;96.60;;;;;;5041857;28;20461;-82
2023/03/27 03:22:10;;;;;;;6.20;1.40;;;5.80;96.60;;;;;;5046437;28;20479;-81
2023/03/27 03:24:40;;;;;;;5.60;3.53;;;5.80;96.60;;;;;;5051127;28;20762;-84
2023/03/27 03:27:07;;;;;;;2.80;1.43;;;5.90;96.50;;;;;;5058573;28;20451;-81
2023/03/27 03:29:37;;;;;;;4.23;1.37;;;5.80;96.60;;;;;;5059623;28;20487;-84
2023/03/27 03:32:05;;;;;;;5.93;1.27;;;5.90;96.60;;;;;;5059859;28;21461;-83
2023/03/27 03:34:32;;;;;;;4.70;1.50;;;5.80;96.50;;;;;;5063860;28;20460;-82
2023/03/27 03:36:59;;;;;;;6.50;2.20;;;5.70;96.50;;;;;;5060787;28;20441;-82
2023/03/27 03:39:25;;;;;;;4.77;2.00;;;5.70;96.70;;;;;;5045988;28;20445;-83
2023/03/27 03:41:52;;;;;;;3.40;1.37;;;5.70;96.80;;;;;;5046184;28;20498;-83
2023/03/27 03:44:19;;;;;;;7.23;1.47;;;5.80;96.90;;;;;;5053391;28;20460;-82
2023/03/27 03:46:46;;;;;;;4.30;1.60;;;5.80;96.80;;;;;;5053811;28;20479;-82
2023/03/27 03:49:12;;;;;;;4.07;1.40;;;5.70;96.70;;;;;;5050367;28;20492;-83
2023/03/27 03:51:39;;;;;;;8.27;1.77;;;5.70;96.90;;;;;;5030824;28;20526;-82
2023/03/27 03:54:07;;;;;;;3.50;1.43;;;5.70;96.90;;;;;;5045266;28;20483;-83
2023/03/27 03:56:35;;;;;;;4.20;1.23;;;5.70;96.90;;;;;;5043289;28;20783;-84
2023/03/27 03:59:02;;;;;;;6.30;1.80;;;5.70;97.10;;;;;;5043797;28;20664;-82
2023/03/27 04:01:29;;;;;;;4.93;1.90;;;5.70;97.10;;;;;;5045594;28;20481;-82
2023/03/27 04:03:56;;;;;;;5.70;1.97;;;5.60;97.10;;;;;;5042491;28;20856;-81
2023/03/27 04:06:25;;;;;;;7.43;1.90;;;5.60;97.10;;;;;;5044292;28;21401;-82
2023/03/27 04:08:52;;;;;;;5.27;1.80;;;5.60;97.20;;;;;;5042348;28;20444;-83
2023/03/27 04:11:19;;;;;;;5.90;1.60;;;5.50;97.30;;;;;;5042134;28;21014;-83
2023/03/27 04:13:46;;;;;;;10.53;1.40;;;5.50;97.40;;;;;;5042112;28;20495;-84
2023/03/27 04:16:12;;;;;;;4.87;1.60;;;5.50;97.50;;;;;;5042906;28;20457;-83
2023/03/27 04:18:40;;;;;;;6.80;1.87;;;5.50;97.60;;;;;;5058197;28;20437;-84
2023/03/27 04:21:13;;;;;;;12.63;1.67;;;5.50;97.70;;;;;;5060299;28;20497;-83
2023/03/27 04:23:41;;;;;;;3.13;1.63;;;5.50;97.70;;;;;;5062890;28;20451;-83
2023/03/27 04:26:10;;;;;;;2.20;1.60;;;5.50;97.80;;;;;;5037347;28;20484;-84
2023/03/27 04:28:38;;;;;;;2.87;2.00;;;5.40;97.70;;;;;;5055837;28;20467;-84
2023/03/27 04:31:07;;;;;;;6.00;1.47;;;5.40;97.70;;;;;;5050988;28;20988;-84
2023/03/27 04:33:38;;;;;;;6.80;1.53;;;5.40;97.90;;;;;;5039606;28;20449;-84
2023/03/27 04:36:05;;;;;;;6.57;2.03;;;5.40;98.00;;;;;;5039817;28;20464;-82
2023/03/27 04:38:35;;;;;;;7.43;1.67;;;5.50;97.90;;;;;;5042563;28;20454;-83
2023/03/27 04:41:02;;;;;;;6.27;1.77;;;5.60;97.90;;;;;;5039729;28;20489;-84
2023/03/27 04:43:29;;;;;;;5.53;1.80;;;5.50;97.80;;;;;;5038595;28;20452;-83
2023/03/27 04:45:56;;;;;;;4.70;1.70;;;5.60;97.80;;;;;;5037498;28;20510;-84
2023/03/27 04:48:22;;;;;;;2.50;1.90;;;5.50;97.70;;;;;;5036248;28;20495;-83
2023/03/27 04:50:49;;;;;;;5.77;1.97;;;5.50;97.80;;;;;;5036829;28;20512;-83
2023/03/27 04:53:19;;;;;;;6.37;2.10;;;5.50;97.90;;;;;;5033804;28;20469;-82
2023/03/27 04:55:49;;;;;;;3.23;1.67;;;5.50;98.00;;;;;;5036521;28;21203;-83
2023/03/27 04:58:17;;;;;;;2.73;1.87;;;5.50;98.00;;;;;;5035967;28;20459;-82
2023/03/27 05:00:49;;;;;;;4.73;1.90;;;5.40;98.00;;;;;;5033716;28;20488;-83
2023/03/27 05:03:19;;;;;;;7.80;2.40;;;5.50;98.10;;;;;;5036683;28;20461;-84
2023/03/27 05:05:48;;;;;;;3.70;2.10;;;5.40;98.20;;;;;;5037894;28;20962;-84
2023/03/27 05:08:16;;;;;;;7.83;2.63;;;5.50;98.30;;;;;;5036603;28;20460;-82
2023/03/27 05:10:44;;;;;;;5.03;2.17;;;5.40;98.30;;;;;;5038020;28;20460;-83
2023/03/27 05:13:11;;;;;;;12.10;1.90;;;5.40;98.30;;;;;;5048260;28;20476;-84
2023/03/27 05:15:38;;;;;;;4.20;2.03;;;5.50;98.50;;;;;;5038429;28;22208;-83
2023/03/27 05:18:05;;;;;;;8.83;1.73;;;5.50;98.50;;;;;;5039059;28;20975;-82
2023/03/27 05:20:33;;;;;;;4.10;1.87;;;5.60;98.50;;;;;;5036948;28;20551;-82
2023/03/27 05:23:00;;;;;;;6.63;2.07;;;5.50;98.40;;;;;;5041441;28;20464;-84
2023/03/27 05:25:28;;;;;;;2.27;2.00;;;5.40;98.30;;;;;;5034327;28;20903;-83
2023/03/27 05:27:55;;;;;;;7.10;2.10;;;5.50;98.40;;;;;;5046245;28;20530;-82
2023/03/27 05:30:25;;;;;;;6.03;2.07;;;5.50;98.40;;;;;;5041547;28;20549;-82
2023/03/27 05:32:52;;;;;;;6.33;2.70;;;5.40;98.50;;;;;;5036396;28;20461;-82
2023/03/27 05:35:22;;;;;;;3.53;1.70;;;5.40;98.60;;;;;;5035855;28;20463;-83
2023/03/27 05:37:51;;;;;;;5.87;2.50;;;5.40;98.80;;;;;;5039156;28;21053;-82
2023/03/27 05:40:21;;;;;;;7.45;2.50;;;5.40;98.80;;;;;;5050403;28;20544;-80
2023/03/27 05:42:49;;;;;;;7.00;2.33;;;5.50;99.00;;;;;;5051192;28;20486;-81
2023/03/27 05:45:16;;;;;;;5.83;2.70;;;5.50;99.00;;;;;;5043421;28;20527;-80
2023/03/27 05:47:46;;;;;;;4.23;1.60;;;5.50;98.90;;;;;;5045388;28;20987;-80
2023/03/27 05:50:14;;;;;;;4.57;2.10;;;5.60;98.80;;;;;;5058688;28;20464;-81
2023/03/27 05:53:04;;;;;;;5.33;2.20;;;5.60;98.80;;;;;;5045246;28;20468;-81
2023/03/27 05:55:31;;;;;;;4.03;1.90;;;5.70;99.20;;;;;;5048347;28;20456;-83
2023/03/27 05:57:57;;;;;;;8.90;2.57;;;5.80;98.80;;;;;;5044093;28;20457;-85
2023/03/27 06:00:25;;;;;;;7.47;2.63;;;5.90;98.80;;;;;;5034875;28;20461;-83
2023/03/27 06:02:56;;;;;;;5.20;3.40;;;6.00;98.70;;;;;;5033893;28;20444;-83
2023/03/27 06:05:25;;;;;;;5.80;2.50;;;6.10;98.60;;;;;;5036332;28;20464;-83
2023/03/27 06:07:51;;;;;;;6.13;2.20;;;6.40;98.60;;;;;;5039808;28;20468;-82
2023/03/27 06:10:22;;;;;;;4.80;2.03;;;6.60;98.40;;;;;;5039196;28;20445;-84
2023/03/27 06:13:05;;;;;;;6.70;1.90;;;7.00;97.90;;;;;;5034453;28;20465;-84
2023/03/27 06:15:32;;;;;;;3.63;2.20;;;7.50;97.20;;;;;;5039025;28;20452;-85
2023/03/27 06:17:59;;;;;;;4.27;1.90;;;7.80;95.90;;;;;;5034117;28;20515;-83
2023/03/27 06:20:26;;;;;;;2.10;1.80;;;7.70;95.00;;;;;;5032327;28;20462;-83
2023/03/27 06:22:55;;;;;;;5.20;2.60;;;7.70;95.30;;;;;;5031788;28;20512;-80
2023/03/27 06:25:23;;;;;;;3.43;1.73;;;7.80;95.10;;;;;;5031448;28;21782;-84
2023/03/27 06:27:50;;;;;;;5.83;2.93;;;8.50;96.00;;;;;;5034862;28;20460;-84
2023/03/27 06:30:19;;;;;;;6.53;2.20;;;9.20;94.00;;;;;;5042098;28;20543;-80
2023/03/27 06:32:50;;;;;;;3.37;1.70;;;9.00;92.00;;;;;;5049036;28;20550;-83
2023/03/27 06:35:18;;;;;;;2.50;1.90;;;8.50;92.70;;;;;;5042572;28;20448;-83
2023/03/27 06:37:47;;;;;;;6.27;2.70;;;8.40;93.40;;;;;;5041473;28;20471;-83
2023/03/27 06:40:21;;;;;;;7.17;2.17;;;8.70;94.00;;;;;;5046615;28;20495;-83
2023/03/27 06:42:52;;;;;;;5.30;2.30;;;8.70;93.20;;;;;;5051272;28;20515;-82
2023/03/27 06:45:21;;;;;;;5.43;2.40;;;8.90;93.80;;;;;;5047790;28;20486;-83
2023/03/27 06:47:49;;;;;;;3.93;2.20;;;10.20;92.60;;;;;;5050324;28;20550;-84
2023/03/27 06:50:22;;;;;;;4.87;1.60;;;11.70;90.00;;;;;;5051184;28;20438;-83
2023/03/27 06:52:51;;;;;;;4.40;1.77;;;11.90;83.10;;;;;;5058258;28;20470;-83
2023/03/27 06:55:20;;;;;;;8.73;2.00;;;11.10;82.30;;;;;;5056816;28;20448;-83
2023/03/27 06:57:49;;;;;;;3.60;2.00;;;10.20;84.80;;;;;;5051464;28;20535;-84
2023/03/27 07:00:18;;;;;;;2.40;1.70;;;9.50;88.30;;;;;;5047536;28;20468;-82
2023/03/27 07:02:45;;;;;;;3.27;2.17;;;8.70;90.50;;;;;;5047139;28;20486;-83
2023/03/27 07:05:15;;;;;;;5.97;2.03;;;8.20;92.00;;;;;;5047470;28;20783;-83
2023/03/27 07:07:42;;;;;;;8.43;1.90;;;7.90;93.20;;;;;;5050207;28;20482;-80
2023/03/27 07:10:10;;;;;;;3.87;1.90;;;9.10;95.10;;;;;;5049780;28;20460;-83
2023/03/27 07:12:37;;;;;;;7.93;2.20;;;10.80;92.00;;;;;;5041774;28;20495;-84
2023/03/27 07:15:05;;;;;;;4.13;1.70;;;11.90;86.50;;;;;;5040737;28;21087;-83
2023/03/27 07:17:32;;;;;;;2.40;1.80;;;11.10;82.40;;;;;;5061857;28;20463;-84
2023/03/27 07:20:13;;;;;;;3.67;1.67;;;10.30;85.30;;;;;;5030741;28;20465;-83
2023/03/27 07:22:41;;;;;;;4.70;1.87;;;9.90;88.70;;;;;;5040866;28;21448;-83
2023/03/27 07:25:11;;;;;;;3.90;1.43;;;9.80;90.40;;;;;;5039719;28;20465;-84
2023/03/27 07:27:38;;;;;;;3.20;1.80;;;11.50;90.10;;;;;;5037828;28;20460;-85
2023/03/27 07:30:06;;;;;;;4.40;1.27;;;13.20;82.60;;;;;;5042046;28;20470;-84
2023/03/27 07:32:34;;;;;;;5.50;1.60;;;13.60;76.80;;;;;;5048956;28;21101;-85
2023/03/27 07:35:04;;;;;;;3.43;1.90;;;14.90;75.30;;;;;;5041517;28;20456;-84
2023/03/27 07:37:31;;;;;;;4.43;1.87;;;15.70;67.50;;;;;;5038151;28;20455;-84
2023/03/27 07:39:57;;;;;;;3.40;2.00;;;15.60;66.00;;;;;;5041042;28;20546;-84
2023/03/27 07:42:25;;;;;;;3.90;1.70;;;15.10;65.70;;;;;;5039332;28;20495;-84
2023/03/27 07:44:51;;;;;;;5.87;1.97;;;14.00;65.20;;;;;;5038212;28;20452;-84
2023/03/27 07:47:18;;;;;;;4.37;1.30;;;14.10;69.00;;;;;;5035514;28;20655;-82
2023/03/27 07:49:45;;;;;;;1.97;1.20;;;15.10;66.00;;;;;;5038496;28;20455;-82
2023/03/27 07:52:12;;;;;;;2.27;1.50;;;16.10;63.70;;;;;;5034607;28;20484;-83
2023/03/27 07:54:41;;;;;;;3.33;1.93;;;16.70;61.40;;;;;;5039187;28;21057;-84
2023/03/27 07:57:09;;;;;;;4.43;1.50;;;17.70;58.50;;;;;;5037487;28;21163;-85
2023/03/27 07:59:35;;;;;;;2.73;1.80;;;19.40;56.10;;;;;;5041911;28;20460;-84
2023/03/27 08:02:02;;;;;;;3.60;2.10;;;20.20;52.90;;;;;;5038023;28;20492;-84
2023/03/27 08:04:29;;;;;;;4.80;1.90;;;20.50;50.20;;;;;;5041580;28;20445;-84
2023/03/27 08:06:56;;;;;;;3.03;1.37;;;20.10;50.10;;;;;;5043374;28;20637;-84
2023/03/27 08:09:22;;;;;;;5.03;1.47;;;20.10;49.10;;;;;;5041277;28;20467;-83
2023/03/27 08:11:49;;;;;;;5.00;1.70;;;19.60;49.20;;;;;;5041546;28;20468;-83
2023/03/27 08:14:16;;;;;;;4.33;2.00;;;20.00;49.20;;;;;;5041727;28;20447;-83
2023/03/27 08:16:42;;;;;;;1.90;1.20;;;21.30;47.70;;;;;;5040999;28;20456;-83
2023/03/27 08:19:10;;;;;;;3.73;1.47;;;19.50;45.80;;;;;;5037581;28;20452;-84
2023/03/27 08:21:37;;;;;;;3.13;1.20;;;17.90;48.20;;;;;;5040605;28;20472;-83
2023/03/27 08:24:04;;;;;;;2.37;1.40;;;17.70;49.60;;;;;;5041618;28;20485;-83
2023/03/27 08:26:31;;;;;;;2.60;1.30;;;18.30;48.80;;;;;;5038444;28;20543;-84
2023/03/27 08:28:59;;;;;;;2.57;1.23;;;19.40;48.50;;;;;;5036956;28;20918;-83
2023/03/27 08:31:27;;;;;;;1.80;1.40;;;19.10;47.20;;;;;;5039778;28;21279;-84
2023/03/27 08:33:55;;;;;;;3.90;1.10;;;17.60;47.80;;;;;;5023502;28;20449;-84
2023/03/27 08:36:21;;;;;;;2.97;1.97;;;15.70;50.10;;;;;;5040345;28;20463;-83
2023/03/27 08:38:48;;;;;;;4.97;1.37;;;13.70;52.70;;;;;;5046485;28;20874;-84
2023/03/27 08:41:26;;;;;;;2.77;1.30;;;12.60;55.40;;;;;;5044765;28;20479;-82
2023/03/27 08:43:56;;;;;;;2.20;1.17;;;12.20;57.40;;;;;;5058339;28;20462;-84
2023/03/27 08:46:27;;;;;;;2.33;1.17;;;11.90;58.70;;;;;;5062868;28;20420;-83
2023/03/27 08:49:00;;;;;;;2.90;1.00;;;11.60;59.50;;;;;;5068122;28;20487;-85
2023/03/27 08:51:33;;;;;;;6.63;2.47;;;11.20;59.50;;;;;;5055553;28;21173;-83
2023/03/27 08:54:07;;;;;;;9.37;1.47;;;10.70;59.80;;;;;;5042896;28;20453;-86
2023/03/27 08:56:34;;;;;;;4.00;1.30;;;10.40;60.40;;;;;;5045857;28;20889;-83
2023/03/27 08:59:01;;;;;;;7.47;1.33;;;10.30;62.20;;;;;;5043404;28;20447;-82
2023/03/27 09:01:28;;;;;;;2.33;1.40;;;10.30;63.50;;;;;;5044340;28;20484;-83
2023/03/27 09:04:14;;;;;;;3.90;1.37;;;10.40;63.30;;;;;;5044264;28;20471;-84
2023/03/27 09:06:59;;;;;;;2.70;1.00;;;11.00;59.90;;;;;;5041251;28;21079;-84
2023/03/27 09:09:52;;;;;;;3.00;1.30;;;10.80;59.40;;;;;;5028272;28;20444;-84
2023/03/27 09:12:25;;;;;;;3.50;1.50;;;10.50;59.80;;;;;;5035354;28;20473;-84
2023/03/27 09:15:15;;;;;;;6.27;1.47;;;10.00;61.70;;;;;;5033716;28;20511;-84
2023/03/27 09:17:56;;;;;;;2.53;1.47;;;9.50;66.00;;;;;;5032171;28;20464;-84
2023/03/27 09:20:32;;;;;;;4.00;1.60;;;9.20;68.90;;;;;;5031567;28;20449;-84
2023/03/27 09:23:09;;;;;;;5.53;1.33;;;9.10;71.10;;;;;;5031850;28;20483;-83
2023/03/27 09:25:39;;;;;;;1.40;1.30;;;9.10;72.90;;;;;;5031199;28;21033;-84
2023/03/27 09:28:22;;;;;;;4.43;1.63;;;9.10;73.50;;;;;;5032190;28;20453;-84
2023/03/27 09:30:49;;;;;;;4.20;1.57;;;9.00;72.90;;;;;;5044802;28;20465;-81
2023/03/27 09:33:16;;;;;;;5.03;1.30;;;9.10;72.90;;;;;;5055295;28;20532;-83
2023/03/27 09:35:43;;;;;;;2.63;1.70;;;9.40;72.50;;;;;;5060666;28;20470;-84
2023/03/27 09:38:20;;;;;;;4.70;1.33;;;9.80;70.70;;;;;;5059576;28;20792;-84
2023/03/27 09:40:53;;;;;;;4.40;2.93;;;9.90;69.40;;;;;;5062715;28;20503;-83
2023/03/27 09:43:26;;;;;;;7.60;2.93;;;9.80;69.60;;;;;;5057743;28;20520;-83
2023/03/27 09:45:54;;;;;;;3.40;1.60;;;9.70;68.70;;;;;;5077506;28;20455;-84
2023/03/27 09:48:45;;;;;;;5.97;1.90;;;9.60;67.00;;;;;;5040002;28;20441;-84
2023/03/27 09:51:37;;;;;;;2.93;1.27;;;9.80;66.20;;;;;;5052834;28;20513;-82
2023/03/27 09:54:05;;;;;;;3.80;1.40;;;11.10;62.50;;;;;;5057583;28;20474;-84
2023/03/27 09:56:41;;;;;;;4.50;1.83;;;12.60;58.00;;;;;;5061753;28;20516;-85
2023/03/27 09:59:19;;;;;;;5.63;1.43;;;14.20;54.40;;;;;;5055378;28;20448;-83
2023/03/27 10:01:49;;;;;;;4.20;1.33;;;14.90;50.50;;;;;;5056811;28;20479;-84
2023/03/27 10:04:19;;;;;;;2.23;1.30;;;15.00;49.30;;;;;;5044417;28;20855;-83
2023/03/27 10:07:04;;;;;;;3.83;1.73;;;14.20;50.30;;;;;;5040193;28;20467;-83
2023/03/27 10:09:33;;;;;;;4.67;1.53;;;13.50;50.90;;;;;;5040525;28;20921;-85
2023/03/27 10:12:06;;;;;;;3.43;1.47;;;12.70;51.20;;;;;;5042343;28;20480;-84
2023/03/27 10:14:44;;;;;;;2.17;1.40;;;12.50;53.20;;;;;;5037630;28;20477;-82
2023/03/27 10:17:25;;;;;;;3.77;1.30;;;13.90;52.00;;;;;;5039361;28;20710;-84
2023/03/27 10:20:00;;;;;;;3.23;1.43;;;15.10;49.30;;;;;;5040700;28;20472;-83
2023/03/27 10:22:33;;;;;;;1.97;1.40;;;14.80;48.40;;;;;;5041371;28;20535;-84
2023/03/27 10:25:03;;;;;;;5.53;2.13;;;13.90;49.50;;;;;;5046304;28;20521;-84
2023/03/27 10:27:33;;;;;;;2.50;1.57;;;13.00;51.60;;;;;;5041948;28;20883;-83
2023/03/27 10:30:01;;;;;;;5.33;1.60;;;12.40;52.30;;;;;;5053881;28;20530;-84
2023/03/27 10:32:43;;;;;;;2.30;1.40;;;12.30;53.60;;;;;;5045676;28;20489;-82
2023/03/27 10:35:26;;;;;;;3.83;1.10;;;12.90;53.10;;;;;;5043102;28;20461;-84
2023/03/27 10:37:55;;;;;;;5.70;1.63;;;13.80;52.20;;;;;;5018833;28;21982;-85
2023/03/27 10:40:33;;;;;;;2.90;1.30;;;14.10;51.10;;;;;;5029061;28;20539;-83
2023/03/27 10:43:04;;;;;;;5.57;1.90;;;13.30;50.50;;;;;;5034547;28;21099;-84
2023/03/27 10:45:44;;;;;;;4.83;1.33;;;12.80;52.60;;;;;;5031888;28;20455;-84
2023/03/27 10:48:26;;;;;;;5.43;1.73;;;12.20;54.10;;;;;;5028241;28;22112;-83
2023/03/27 10:50:57;;;;;;;3.53;2.00;;;11.60;55.00;;;;;;5030452;28;20579;-84
2023/03/27 10:53:36;;;;;;;4.10;2.10;;;11.20;55.90;;;;;;5028351;28;20532;-84
2023/03/27 10:56:22;;;;;;;4.23;1.40;;;11.40;56.60;;;;;;5031502;28;20531;-85
2023/03/27 10:58:58;;;;;;;1.70;1.30;;;12.10;56.10;;;;;;5033173;28;20460;-83
2023/03/27 11:01:30;;;;;;;6.20;1.73;;;13.00;54.10;;;;;;5037176;28;20481;-84
2023/03/27 11:04:14;;;;;;;3.97;1.43;;;13.80;51.90;;;;;;5039156;28;20532;-83
2023/03/27 11:06:43;;;;;;;4.33;1.43;;;14.30;50.00;;;;;;5040469;28;20542;-83
2023/03/27 11:09:22;;;;;;;2.17;1.50;;;14.80;49.70;;;;;;5042414;28;20454;-83
2023/03/27 11:12:03;;;;;;;3.80;1.57;;;15.20;49.10;;;;;;5042970;28;20468;-85
2023/03/27 11:15:24;;;;;;;2.80;1.40;;;14.50;48.20;;;;;;5030338;28;20551;-85
2023/03/27 11:18:24;;;;;;;4.10;1.40;;;14.40;48.90;;;;;;4975324;28;20522;-84
2023/03/27 11:20:58;;;;;;;5.50;1.40;;;14.30;47.00;;;;;;5041255;28;20607;-83
2023/03/27 11:23:37;;;;;;;3.90;1.30;;;14.30;47.30;;;;;;5048261;28;20492;-84
2023/03/27 11:26:06;;;;;;;3.63;1.17;;;14.60;47.50;;;;;;5051013;28;20448;-84
2023/03/27 11:28:47;;;;;;;2.37;1.47;;;14.50;47.60;;;;;;5051138;28;20458;-82
2023/03/27 11:31:26;;;;;;;2.27;1.30;;;13.90;48.60;;;;;;5049454;28;21756;-83
2023/03/27 11:34:32;;;;;;;2.97;1.43;;;13.30;50.20;;;;;;5052612;28;20452;-84
2023/03/27 11:37:18;;;;;;;2.93;1.10;;;13.30;51.00;;;;;;5027166;28;20471;-85
2023/03/27 11:40:16;;;;;;;5.00;1.97;;;13.00;51.10;;;;;;5022830;28;20472;-86
2023/03/27 11:42:44;;;;;;;1.43;1.10;;;13.00;52.60;;;;;;5041253;28;20491;-84
2023/03/27 11:45:13;;;;;;;4.60;2.53;;;13.10;51.50;;;;;;5051239;28;20424;-84
2023/03/27 11:48:18;;;;;;;1.60;1.07;;;13.10;50.90;;;;;;5051451;28;22511;-83
2023/03/27 11:51:11;;;;;;;1.53;1.13;;;13.30;50.60;;;;;;5044697;28;20453;-84
2023/03/27 11:54:25;;;;;;;1.37;1.03;;;14.40;50.30;;;;;;5042444;28;20451;-84
2023/03/27 11:56:54;;;;;;;1.73;1.20;;;15.10;49.50;;;;;;4957334;28;20510;-83
2023/03/27 11:59:29;;;;;;;1.73;1.00;;;15.20;46.90;;;;;;5034034;28;20447;-83
2023/03/27 12:02:27;;;;;;;1.80;1.00;;;15.30;46.10;;;;;;5051736;28;20494;-85
2023/03/27 12:05:02;;;;;;;1.93;1.10;;;14.40;46.60;;;;;;5055832;28;20447;-84
2023/03/27 12:08:10;;;;;;;1.83;0.70;;;13.90;48.00;;;;;;5053406;28;22222;-83
2023/03/27 12:10:41;;;;;;;3.43;1.30;;;12.50;53.70;;;;;;5053822;28;20460;-84
2023/03/27 12:14:02;;;;;;;2.73;1.70;;;11.00;60.90;;;;;;5046981;28;20460;-85
2023/03/27 12:16:47;;;;;;;2.70;1.37;;;10.40;69.50;;;;;;4973679;28;20491;-84
2023/03/27 12:20:04;;;;;;;2.67;1.80;;;10.10;76.50;;;;;;5031881;28;20484;-84
2023/03/27 12:23:08;;;;;;;2.73;1.47;;;9.70;82.10;;;;;;5045289;28;20488;-83
2023/03/27 12:25:59;;;;;;;2.00;1.40;;;9.50;86.50;;;;;;5048876;28;20469;-82
2023/03/27 12:28:41;;;;;;;4.70;1.80;;;10.10;89.40;;;;;;5056362;28;20467;-83
2023/03/27 12:31:29;;;;;;;2.07;1.40;;;11.20;89.20;;;;;;5061888;28;20552;-85
2023/03/27 12:34:00;;;;;;;1.67;1.03;;;12.00;85.60;;;;;;5059578;28;20711;-84
2023/03/27 12:36:36;;;;;;;2.23;1.30;;;12.10;80.70;;;;;;5060688;28;20534;-86
2023/03/27 12:39:16;;;;;;;2.40;1.10;;;11.80;79.40;;;;;;5063830;28;20459;-85
2023/03/27 12:41:44;;;;;;;2.63;2.07;;;11.50;80.90;;;;;;5037931;28;20480;-83
2023/03/27 12:44:13;;;;;;;3.00;1.13;;;11.20;81.00;;;;;;5038247;28;20618;-83
2023/03/27 12:46:41;;;;;;;1.20;0.80;;;11.10;80.50;;;;;;5058198;28;20475;-84
2023/03/27 12:49:10;;;;;;;1.47;1.00;;;10.90;78.80;;;;;;5058327;28;20436;-83
2023/03/27 12:51:49;;;;;;;2.00;0.77;;;11.10;79.00;;;;;;5059761;28;20496;-84
2023/03/27 12:54:26;;;;;;;1.83;0.93;;;11.30;74.60;;;;;;5052913;28;20440;-84
2023/03/27 12:57:23;;;;;;;4.53;1.00;;;11.50;71.50;;;;;;5047104;28;20457;-84
2023/03/27 13:00:09;;;;;;;1.43;0.80;;;11.90;69.30;;;;;;5040244;28;20457;-84
2023/03/27 13:02:57;;;;;;;1.67;0.83;;;12.30;68.10;;;;;;5057880;28;20456;-84
2023/03/27 13:06:11;;;;;;;1.90;0.87;;;12.60;64.80;;;;;;5048182;28;20520;-84
2023/03/27 13:09:07;;;;;;;1.67;0.70;;;13.00;62.20;;;;;;4919358;29;20461;-84
2023/03/27 13:11:57;;;;;;;2.87;1.20;;;13.20;59.50;;;;;;4918266;29;21640;-83
2023/03/27 13:14:49;;;;;;;2.20;0.80;;;12.80;59.10;;;;;;5025668;28;20461;-83
2023/03/27 13:17:19;;;;;;;0.90;0.70;;;12.60;59.80;;;;;;5032996;28;20449;-81
2023/03/27 13:19:52;;;;;;;1.80;1.20;;;12.60;60.20;;;;;;5028857;28;20459;-85
2023/03/27 13:22:22;;;;;;;1.37;0.90;;;12.90;61.20;;;;;;5030475;28;20472;-86
2023/03/27 13:25:10;;;;;;;2.07;0.80;;;13.20;60.30;;;;;;5030073;28;20496;-84
2023/03/27 13:27:51;;;;;;;1.17;1.00;;;13.60;60.20;;;;;;5030492;28;20437;-85
2023/03/27 13:30:40;;;;;;;2.43;1.10;;;14.30;58.70;;;;;;5027934;28;21186;-83